Time;durP1;ratioP1;P1;durP2;ratioP2;P2;SDS_P1;SDS_P2;PMS_P1;PMS_P2;Temp;Humidity;BMP_temperature;BMP_pressure;BME280_temperature;BME280_humidity;BME280_pressure;Samples;Min_cycle;Max_cycle;Signal;HPM_P1;HPM_P2
2023/12/22 00:00:15;;;;;;;12.23;2.40;;;24.20;52.70;;;;;;5056887;28;20195;-69
2023/12/22 00:02:42;;;;;;;10.53;2.47;;;24.30;52.90;;;;;;5059749;28;20246;-68
2023/12/22 00:05:09;;;;;;;10.37;2.00;;;24.30;52.30;;;;;;5056555;28;20192;-67
2023/12/22 00:07:37;;;;;;;8.57;2.07;;;24.00;52.90;;;;;;5068361;28;20179;-68
2023/12/22 00:10:04;;;;;;;9.73;2.23;;;23.80;53.90;;;;;;5060370;28;20271;-68
2023/12/22 00:12:31;;;;;;;10.77;2.93;;;23.30;54.80;;;;;;5060828;28;20230;-69
2023/12/22 00:14:59;;;;;;;9.10;2.17;;;23.00;55.60;;;;;;5051449;28;20200;-67
2023/12/22 00:17:26;;;;;;;8.23;2.20;;;23.40;54.40;;;;;;5057955;28;20290;-68
2023/12/22 00:19:55;;;;;;;9.23;2.27;;;24.00;53.80;;;;;;5060048;28;20183;-67
2023/12/22 00:22:22;;;;;;;11.13;2.23;;;23.90;52.80;;;;;;5059138;28;20249;-69
2023/12/22 00:24:49;;;;;;;8.27;1.83;;;24.10;52.90;;;;;;5060014;28;20267;-67
2023/12/22 00:27:17;;;;;;;11.10;2.07;;;24.30;51.10;;;;;;5065589;28;20511;-67
2023/12/22 00:29:44;;;;;;;9.40;1.70;;;24.30;50.70;;;;;;5069878;28;20179;-69
2023/12/22 00:32:12;;;;;;;9.50;2.10;;;24.30;50.90;;;;;;5073378;28;20190;-68
2023/12/22 00:34:39;;;;;;;7.50;1.97;;;24.40;50.40;;;;;;5063893;28;20288;-68
2023/12/22 00:37:06;;;;;;;10.80;2.00;;;24.40;50.10;;;;;;5068997;28;20175;-70
2023/12/22 00:39:33;;;;;;;5.37;2.37;;;24.30;49.00;;;;;;5069667;28;20345;-69
2023/12/22 00:42:01;;;;;;;8.53;1.93;;;24.40;49.90;;;;;;5068732;28;20306;-70
2023/12/22 00:44:29;;;;;;;11.03;2.03;;;24.60;48.60;;;;;;5063831;28;20175;-68
2023/12/22 00:46:56;;;;;;;6.70;1.60;;;24.40;49.90;;;;;;5063641;28;20646;-70
2023/12/22 00:49:24;;;;;;;10.23;1.70;;;24.40;50.70;;;;;;5040043;28;20179;-68
2023/12/22 00:51:51;;;;;;;7.63;1.73;;;24.60;49.20;;;;;;5059145;28;20188;-69
2023/12/22 00:54:18;;;;;;;6.77;1.90;;;24.70;48.70;;;;;;5063976;28;20215;-69
2023/12/22 00:56:46;;;;;;;8.50;1.57;;;24.80;48.90;;;;;;5060847;28;20271;-68
2023/12/22 00:59:13;;;;;;;6.87;1.63;;;24.70;46.80;;;;;;5058566;28;20558;-68
2023/12/22 01:01:40;;;;;;;7.70;1.63;;;24.70;48.10;;;;;;5063021;28;20238;-68
2023/12/22 01:04:08;;;;;;;9.57;2.20;;;24.60;46.70;;;;;;5060297;28;20178;-67
2023/12/22 01:06:38;;;;;;;8.77;2.03;;;24.50;47.60;;;;;;5051796;28;20647;-68
2023/12/22 01:09:06;;;;;;;7.97;1.73;;;24.40;48.10;;;;;;5051923;28;20226;-72
2023/12/22 01:11:34;;;;;;;12.77;1.97;;;24.50;47.50;;;;;;5061795;28;20187;-68
2023/12/22 01:14:01;;;;;;;7.60;1.93;;;24.50;48.70;;;;;;5050265;28;20234;-71
2023/12/22 01:16:28;;;;;;;5.27;1.67;;;24.50;48.30;;;;;;5060703;28;20214;-70
2023/12/22 01:18:56;;;;;;;9.13;2.10;;;24.60;47.10;;;;;;5062412;28;20283;-68
2023/12/22 01:21:23;;;;;;;6.43;1.60;;;24.40;48.30;;;;;;5059144;28;20178;-68
2023/12/22 01:23:50;;;;;;;10.23;1.70;;;24.70;48.30;;;;;;5057387;28;20187;-69
2023/12/22 01:26:17;;;;;;;6.40;1.53;;;25.00;45.70;;;;;;5059514;28;20225;-69
2023/12/22 01:28:45;;;;;;;10.10;1.80;;;25.00;45.60;;;;;;5065826;28;20229;-70
2023/12/22 01:31:12;;;;;;;7.77;1.77;;;25.00;46.00;;;;;;5060353;28;20191;-68
2023/12/22 01:33:39;;;;;;;10.83;1.90;;;25.00;45.60;;;;;;5064889;28;20207;-69
2023/12/22 01:36:07;;;;;;;6.73;1.60;;;24.90;45.40;;;;;;5059049;28;20568;-70
2023/12/22 01:38:34;;;;;;;7.03;1.70;;;24.80;44.70;;;;;;5060834;28;20270;-69
2023/12/22 01:41:01;;;;;;;5.40;1.30;;;25.20;45.20;;;;;;5023911;28;20321;-68
2023/12/22 01:43:29;;;;;;;7.43;1.77;;;25.10;43.50;;;;;;5065755;28;20200;-68
2023/12/22 01:45:58;;;;;;;5.10;1.40;;;25.60;44.80;;;;;;5056085;28;20195;-68
2023/12/22 01:48:26;;;;;;;7.20;1.40;;;25.80;44.10;;;;;;5066178;28;20184;-68
2023/12/22 01:50:55;;;;;;;8.27;1.60;;;25.70;42.50;;;;;;5062333;28;20172;-69
2023/12/22 01:53:24;;;;;;;6.60;1.60;;;25.40;42.60;;;;;;5061480;28;20226;-69
2023/12/22 01:55:52;;;;;;;7.57;1.37;;;25.30;43.60;;;;;;5058007;28;20716;-70
2023/12/22 01:58:22;;;;;;;7.13;1.27;;;25.60;42.80;;;;;;5056687;28;20555;-68
2023/12/22 02:00:50;;;;;;;6.87;1.57;;;25.50;42.60;;;;;;5059693;28;20184;-69
2023/12/22 02:03:17;;;;;;;7.10;1.97;;;25.60;43.70;;;;;;5064479;28;20179;-68
2023/12/22 02:05:48;;;;;;;6.20;1.70;;;25.60;44.00;;;;;;5060140;28;20183;-68
2023/12/22 02:08:19;;;;;;;5.80;1.60;;;25.80;43.70;;;;;;5065096;28;20176;-68
2023/12/22 02:10:46;;;;;;;9.23;1.57;;;25.60;43.10;;;;;;5061075;28;20208;-69
2023/12/22 02:13:14;;;;;;;7.03;1.50;;;25.40;43.60;;;;;;5063972;28;20207;-69
2023/12/22 02:15:41;;;;;;;7.77;1.70;;;25.60;43.00;;;;;;5061160;28;20183;-69
2023/12/22 02:18:17;;;;;;;7.57;1.77;;;25.40;42.40;;;;;;5057199;28;20321;-69
2023/12/22 02:20:44;;;;;;;6.80;1.30;;;25.10;44.40;;;;;;5056165;28;20273;-71
2023/12/22 02:23:11;;;;;;;5.53;1.50;;;24.80;44.80;;;;;;5059839;28;20185;-68
2023/12/22 02:25:39;;;;;;;6.80;1.73;;;25.30;43.80;;;;;;5063402;28;20243;-70
2023/12/22 02:28:13;;;;;;;5.43;1.30;;;25.50;43.60;;;;;;5056729;28;20176;-68
2023/12/22 02:30:55;;;;;;;5.77;1.53;;;25.50;43.40;;;;;;5060427;28;20186;-69
2023/12/22 02:33:24;;;;;;;5.37;1.50;;;25.40;42.30;;;;;;5059464;28;20211;-69
2023/12/22 02:35:58;;;;;;;6.10;1.50;;;25.40;42.30;;;;;;5059462;28;20191;-73
2023/12/22 02:38:26;;;;;;;6.30;1.43;;;25.30;42.90;;;;;;5048515;28;20658;-69
2023/12/22 02:40:56;;;;;;;8.67;1.40;;;25.10;41.20;;;;;;5060551;28;20231;-69
2023/12/22 02:43:24;;;;;;;4.27;1.30;;;25.20;41.60;;;;;;5043797;28;20172;-67
2023/12/22 02:45:53;;;;;;;5.97;1.50;;;25.60;41.10;;;;;;5054107;28;20180;-67
2023/12/22 02:48:21;;;;;;;5.10;1.30;;;25.70;42.10;;;;;;5054018;28;20184;-68
2023/12/22 02:50:48;;;;;;;7.07;1.50;;;25.80;41.60;;;;;;5060423;28;20179;-68
2023/12/22 02:53:19;;;;;;;8.07;1.57;;;25.80;40.70;;;;;;5067070;28;20215;-71
2023/12/22 02:55:47;;;;;;;6.90;1.80;;;25.80;40.20;;;;;;5060463;28;20214;-67
2023/12/22 02:58:14;;;;;;;5.60;1.10;;;25.80;40.60;;;;;;5040087;28;20190;-70
2023/12/22 03:00:42;;;;;;;8.07;1.70;;;26.10;39.50;;;;;;5062797;28;20171;-68
2023/12/22 03:03:10;;;;;;;8.10;1.10;;;26.30;39.70;;;;;;5053453;28;20180;-68
2023/12/22 03:05:37;;;;;;;6.83;1.43;;;26.30;39.40;;;;;;5066757;28;20186;-69
2023/12/22 03:08:05;;;;;;;5.10;1.30;;;26.20;39.90;;;;;;5050533;28;20569;-68
2023/12/22 03:10:33;;;;;;;5.83;1.60;;;26.40;40.20;;;;;;5057697;28;20187;-70
2023/12/22 03:13:00;;;;;;;4.93;1.27;;;26.40;40.70;;;;;;5052853;28;20252;-67
2023/12/22 03:15:28;;;;;;;9.27;1.43;;;26.40;41.00;;;;;;5037752;28;20181;-68
2023/12/22 03:17:57;;;;;;;6.90;1.43;;;26.70;40.50;;;;;;5057338;28;20205;-71
2023/12/22 03:20:24;;;;;;;8.17;1.53;;;26.30;40.40;;;;;;5061159;28;20274;-67
2023/12/22 03:22:53;;;;;;;3.70;1.10;;;26.80;40.20;;;;;;5061510;28;20176;-71
2023/12/22 03:25:21;;;;;;;6.47;1.23;;;27.30;39.00;;;;;;5059278;28;20182;-68
2023/12/22 03:27:49;;;;;;;6.57;1.30;;;27.30;39.80;;;;;;5032079;28;20194;-68
2023/12/22 03:30:16;;;;;;;6.13;1.40;;;27.20;39.20;;;;;;5026304;28;20571;-73
2023/12/22 03:32:44;;;;;;;3.50;1.17;;;26.80;40.40;;;;;;5057879;28;20191;-72
2023/12/22 03:35:11;;;;;;;4.80;0.77;;;26.90;40.00;;;;;;5059326;28;20234;-68
2023/12/22 03:37:39;;;;;;;7.37;1.73;;;26.80;37.50;;;;;;5051019;28;20200;-69
2023/12/22 03:40:07;;;;;;;6.97;1.30;;;27.00;38.90;;;;;;5056402;28;20242;-69
2023/12/22 03:42:36;;;;;;;6.70;1.23;;;27.10;39.30;;;;;;5044145;28;20258;-71
2023/12/22 03:45:03;;;;;;;7.47;1.70;;;26.80;40.00;;;;;;5040715;28;20725;-70
2023/12/22 03:47:31;;;;;;;5.27;1.30;;;26.80;41.00;;;;;;5038669;28;20173;-72
2023/12/22 03:49:58;;;;;;;4.10;0.90;;;27.30;37.80;;;;;;5044564;28;20282;-69
2023/12/22 03:52:26;;;;;;;4.33;1.30;;;27.30;37.50;;;;;;5046330;28;20215;-74
2023/12/22 03:54:53;;;;;;;5.63;1.50;;;27.40;38.00;;;;;;5039498;28;20223;-73
2023/12/22 03:57:21;;;;;;;7.30;1.37;;;27.30;38.00;;;;;;5040809;28;20221;-69
2023/12/22 03:59:48;;;;;;;3.47;1.17;;;27.40;36.90;;;;;;5029465;28;20202;-69
2023/12/22 04:02:16;;;;;;;8.20;1.50;;;27.60;38.10;;;;;;5042266;28;20212;-72
2023/12/22 04:04:43;;;;;;;4.20;1.30;;;27.80;38.20;;;;;;5041024;28;20200;-72
2023/12/22 04:07:10;;;;;;;7.63;1.60;;;27.90;37.80;;;;;;5030797;28;20203;-74
2023/12/22 04:09:41;;;;;;;7.17;1.40;;;28.00;37.30;;;;;;5046005;28;20188;-75
2023/12/22 04:12:08;;;;;;;6.67;1.60;;;28.00;38.30;;;;;;5019362;28;20650;-71
2023/12/22 04:14:36;;;;;;;7.57;1.63;;;28.00;38.30;;;;;;5042810;28;20586;-74
2023/12/22 04:17:03;;;;;;;6.20;1.40;;;27.20;39.00;;;;;;5043300;28;20587;-71
2023/12/22 04:19:31;;;;;;;4.97;1.23;;;27.10;39.50;;;;;;5040094;28;20192;-72
2023/12/22 04:21:58;;;;;;;4.00;1.10;;;27.50;38.70;;;;;;5041567;28;20188;-69
2023/12/22 04:24:26;;;;;;;4.87;1.57;;;27.60;38.30;;;;;;5045179;28;20175;-72
2023/12/22 04:26:53;;;;;;;5.33;1.60;;;27.80;38.10;;;;;;5039625;28;20363;-72
2023/12/22 04:29:21;;;;;;;7.47;1.73;;;28.00;39.00;;;;;;5042480;28;20181;-68
2023/12/22 04:31:48;;;;;;;3.93;1.30;;;28.30;39.10;;;;;;5044860;28;20259;-69
2023/12/22 04:34:15;;;;;;;7.77;1.83;;;28.80;38.60;;;;;;5040278;28;20211;-69
2023/12/22 04:36:43;;;;;;;12.27;1.70;;;29.10;39.00;;;;;;5042753;28;20185;-69
2023/12/22 04:39:11;;;;;;;10.80;2.27;;;29.10;38.40;;;;;;5030156;28;20235;-70
2023/12/22 04:41:38;;;;;;;8.13;1.77;;;28.80;39.90;;;;;;5057553;28;20281;-68
2023/12/22 04:44:06;;;;;;;7.60;1.87;;;28.30;39.50;;;;;;5058297;28;20296;-68
2023/12/22 04:46:33;;;;;;;4.57;1.20;;;28.10;40.30;;;;;;5050236;28;20172;-70
2023/12/22 04:49:01;;;;;;;7.13;1.97;;;27.70;41.40;;;;;;5061952;28;20593;-70
2023/12/22 04:51:29;;;;;;;6.43;1.50;;;28.10;41.50;;;;;;5060439;28;20665;-67
2023/12/22 04:53:56;;;;;;;7.63;1.53;;;28.30;40.70;;;;;;5058813;28;20222;-74
2023/12/22 04:56:23;;;;;;;10.03;1.70;;;29.00;39.20;;;;;;5057443;28;20254;-69
2023/12/22 04:58:50;;;;;;;7.37;1.70;;;29.30;40.50;;;;;;5051392;28;20184;-68
2023/12/22 05:01:19;;;;;;;7.97;2.20;;;29.40;40.50;;;;;;5060943;28;20526;-68
2023/12/22 05:03:46;;;;;;;5.33;1.67;;;29.30;40.90;;;;;;5062993;28;20573;-68
2023/12/22 05:06:13;;;;;;;7.80;1.80;;;29.30;41.40;;;;;;5059604;28;20562;-68
2023/12/22 05:08:41;;;;;;;9.03;1.90;;;29.30;41.10;;;;;;5062425;28;20183;-68
2023/12/22 05:11:08;;;;;;;8.03;1.90;;;29.10;40.60;;;;;;5070083;28;20206;-69
2023/12/22 05:13:36;;;;;;;8.57;1.33;;;29.40;39.80;;;;;;5070365;28;20360;-67
2023/12/22 05:16:04;;;;;;;6.43;1.70;;;29.30;39.50;;;;;;5057655;28;20224;-69
2023/12/22 05:18:31;;;;;;;9.70;1.95;;;29.30;39.30;;;;;;5067429;28;20228;-69
2023/12/22 05:20:59;;;;;;;10.23;2.05;;;29.30;39.60;;;;;;5067823;28;20183;-68
2023/12/22 05:23:26;;;;;;;8.73;1.60;;;29.30;40.50;;;;;;5062774;28;20186;-68
2023/12/22 05:25:53;;;;;;;6.67;1.50;;;28.90;40.60;;;;;;5060052;28;20214;-69
2023/12/22 05:28:21;;;;;;;12.43;1.83;;;29.00;40.50;;;;;;5069611;28;20210;-69
2023/12/22 05:30:48;;;;;;;10.37;1.80;;;29.10;39.90;;;;;;5071148;28;20183;-69
2023/12/22 05:33:15;;;;;;;4.13;1.20;;;29.30;39.70;;;;;;5054351;28;20657;-69
2023/12/22 05:35:42;;;;;;;7.93;2.00;;;29.00;39.10;;;;;;5060480;28;20231;-68
2023/12/22 05:38:10;;;;;;;6.10;1.77;;;29.10;38.70;;;;;;5060842;28;20542;-68
2023/12/22 05:40:37;;;;;;;8.50;1.50;;;29.20;39.60;;;;;;5064224;28;20218;-69
2023/12/22 05:43:04;;;;;;;7.00;1.83;;;29.50;38.60;;;;;;5059784;28;20603;-70
2023/12/22 05:45:32;;;;;;;6.28;1.73;;;29.20;38.80;;;;;;5058477;28;20196;-68
2023/12/22 05:47:59;;;;;;;6.15;1.77;;;29.50;38.30;;;;;;5061740;28;20194;-69
2023/12/22 05:50:26;;;;;;;7.27;1.87;;;30.20;38.20;;;;;;5052906;28;20638;-68
2023/12/22 05:52:54;;;;;;;5.73;1.63;;;30.30;38.80;;;;;;5069411;28;20641;-69
2023/12/22 05:55:21;;;;;;;9.63;2.23;;;29.60;40.00;;;;;;5063588;28;20279;-68
2023/12/22 05:57:48;;;;;;;10.32;1.92;;;29.40;40.60;;;;;;5041158;28;20171;-68
2023/12/22 06:00:17;;;;;;;5.45;1.63;;;29.70;39.30;;;;;;5047423;28;20626;-67
2023/12/22 06:02:44;;;;;;;6.33;1.27;;;29.70;38.60;;;;;;5046041;28;20180;-69
2023/12/22 06:05:11;;;;;;;6.00;1.52;;;30.10;37.00;;;;;;5056764;28;20184;-71
2023/12/22 06:07:38;;;;;;;7.47;1.63;;;29.90;37.50;;;;;;5044367;28;20238;-70
2023/12/22 06:10:09;;;;;;;7.60;1.70;;;29.80;37.00;;;;;;5060910;28;20194;-71
2023/12/22 06:12:37;;;;;;;7.10;1.52;;;29.50;38.80;;;;;;5061473;28;20198;-70
2023/12/22 06:15:04;;;;;;;5.78;1.95;;;30.00;38.30;;;;;;5061588;28;20245;-73
2023/12/22 06:17:32;;;;;;;6.32;1.42;;;30.10;38.70;;;;;;5063459;28;20237;-71
2023/12/22 06:19:59;;;;;;;10.30;1.90;;;29.90;38.90;;;;;;5057926;28;20770;-75
2023/12/22 06:22:26;;;;;;;6.17;1.77;;;29.30;40.60;;;;;;5063107;28;20204;-75
2023/12/22 06:24:53;;;;;;;7.80;1.63;;;29.00;40.30;;;;;;5061232;28;20534;-73
2023/12/22 06:27:21;;;;;;;8.90;1.80;;;29.40;40.30;;;;;;5062015;28;20266;-72
2023/12/22 06:29:48;;;;;;;10.70;1.70;;;30.10;39.90;;;;;;5048643;28;20532;-73
2023/12/22 06:32:17;;;;;;;11.20;1.80;;;30.00;39.10;;;;;;5053767;28;20191;-71
2023/12/22 06:34:44;;;;;;;5.60;1.80;;;29.30;40.70;;;;;;5059081;28;20254;-68
2023/12/22 06:37:11;;;;;;;9.00;2.00;;;29.30;40.50;;;;;;5053930;28;20703;-73
2023/12/22 06:39:39;;;;;;;8.90;2.30;;;28.50;41.60;;;;;;5038463;28;20199;-69
2023/12/22 06:42:10;;;;;;;5.20;1.93;;;28.60;42.50;;;;;;5061247;28;20305;-71
2023/12/22 06:44:38;;;;;;;5.43;1.90;;;28.40;42.10;;;;;;5052570;28;20191;-67
2023/12/22 06:47:06;;;;;;;7.30;1.43;;;28.40;41.30;;;;;;5045564;28;20548;-67
2023/12/22 06:49:34;;;;;;;8.73;1.83;;;27.90;41.40;;;;;;5058770;28;20195;-66
2023/12/22 06:52:01;;;;;;;4.90;1.47;;;28.00;42.20;;;;;;5058370;28;20187;-68
2023/12/22 06:54:29;;;;;;;5.93;1.90;;;28.20;41.40;;;;;;5035878;28;20223;-71
2023/12/22 06:56:56;;;;;;;9.20;2.00;;;28.40;41.70;;;;;;5052436;28;20194;-75
2023/12/22 06:59:23;;;;;;;3.93;1.30;;;28.30;42.30;;;;;;5060540;28;20705;-68
2023/12/22 07:01:51;;;;;;;7.80;1.50;;;28.30;41.50;;;;;;5051571;28;20183;-69
2023/12/22 07:04:18;;;;;;;5.83;1.67;;;27.70;43.30;;;;;;5053056;28;20669;-68
2023/12/22 07:06:47;;;;;;;7.93;1.80;;;27.60;43.10;;;;;;5056333;28;20190;-68
2023/12/22 07:09:20;;;;;;;9.97;1.93;;;27.30;44.20;;;;;;5057202;28;20196;-67
2023/12/22 07:11:52;;;;;;;4.43;1.37;;;27.20;43.90;;;;;;5053697;28;20373;-68
2023/12/22 07:14:20;;;;;;;7.80;1.50;;;27.30;43.10;;;;;;5062283;28;20334;-68
2023/12/22 07:16:47;;;;;;;5.80;1.63;;;27.20;43.60;;;;;;5052145;28;20183;-67
2023/12/22 07:19:14;;;;;;;7.77;1.73;;;26.70;44.50;;;;;;5063014;28;20269;-67
2023/12/22 07:21:42;;;;;;;8.43;1.57;;;25.80;45.40;;;;;;5056738;28;20184;-69
2023/12/22 07:24:09;;;;;;;7.83;1.67;;;25.80;46.60;;;;;;5059327;28;20645;-68
2023/12/22 07:26:37;;;;;;;10.27;1.97;;;25.30;48.30;;;;;;5054116;28;20192;-67
2023/12/22 07:29:04;;;;;;;9.57;1.77;;;25.20;48.70;;;;;;5054902;28;20190;-67
2023/12/22 07:31:31;;;;;;;5.77;1.60;;;24.90;49.40;;;;;;5061656;28;20652;-67
2023/12/22 07:33:59;;;;;;;5.57;1.47;;;24.80;49.70;;;;;;5056131;28;20215;-68
2023/12/22 07:36:26;;;;;;;6.03;1.53;;;24.80;49.50;;;;;;5053252;28;20321;-67
2023/12/22 07:38:54;;;;;;;5.90;1.60;;;24.80;49.70;;;;;;5055181;28;20399;-67
2023/12/22 07:41:21;;;;;;;7.43;1.70;;;24.80;49.40;;;;;;5058011;28;20689;-67
2023/12/22 07:43:49;;;;;;;8.53;1.80;;;24.60;51.40;;;;;;5061939;28;20641;-67
2023/12/22 07:46:21;;;;;;;7.00;1.63;;;24.40;52.90;;;;;;5056976;28;20211;-68
2023/12/22 07:48:50;;;;;;;11.33;2.00;;;24.30;53.40;;;;;;5053579;28;20192;-67
2023/12/22 07:51:17;;;;;;;6.77;1.63;;;24.00;54.30;;;;;;5047886;28;20183;-69
2023/12/22 07:53:45;;;;;;;6.13;1.43;;;23.90;53.80;;;;;;5062135;28;20309;-67
2023/12/22 07:56:12;;;;;;;8.90;1.80;;;23.80;54.50;;;;;;5052122;28;21582;-67
2023/12/22 07:58:40;;;;;;;11.83;2.00;;;23.90;54.20;;;;;;5059052;28;20187;-67
2023/12/22 08:01:07;;;;;;;8.77;2.00;;;23.80;55.20;;;;;;5059448;28;20192;-68
2023/12/22 08:03:35;;;;;;;8.67;1.90;;;23.70;56.00;;;;;;5048722;28;20814;-66
2023/12/22 08:06:02;;;;;;;8.73;2.47;;;23.70;56.50;;;;;;5057695;28;20198;-66
2023/12/22 08:08:30;;;;;;;9.80;2.13;;;23.50;57.20;;;;;;5060243;28;20245;-66
2023/12/22 08:10:57;;;;;;;8.93;2.20;;;23.60;57.70;;;;;;5042289;28;20258;-67
2023/12/22 08:13:24;;;;;;;12.80;2.13;;;23.30;58.10;;;;;;5050139;28;20207;-66
2023/12/22 08:15:53;;;;;;;7.80;2.53;;;23.20;58.90;;;;;;5042288;28;20187;-67
2023/12/22 08:18:20;;;;;;;11.07;2.30;;;23.20;59.30;;;;;;5039012;28;20260;-68
2023/12/22 08:20:49;;;;;;;7.60;2.30;;;23.20;60.10;;;;;;5051033;28;20188;-67
2023/12/22 08:23:17;;;;;;;17.47;2.57;;;23.10;60.40;;;;;;5046361;28;20520;-68
2023/12/22 08:25:44;;;;;;;12.53;2.30;;;22.80;62.20;;;;;;5044846;28;20184;-67
2023/12/22 08:28:12;;;;;;;18.63;3.10;;;22.80;62.20;;;;;;5054258;28;20171;-70
2023/12/22 08:30:39;;;;;;;9.87;2.10;;;22.80;62.60;;;;;;5049795;28;20692;-69
2023/12/22 08:33:07;;;;;;;16.93;2.73;;;22.80;62.30;;;;;;5052964;28;20189;-69
2023/12/22 08:35:34;;;;;;;8.40;2.40;;;22.80;61.80;;;;;;5048705;28;20188;-68
2023/12/22 08:38:02;;;;;;;10.63;1.87;;;22.80;61.80;;;;;;5054237;28;20180;-72
2023/12/22 08:40:29;;;;;;;8.40;2.30;;;22.60;62.10;;;;;;5055175;28;20228;-72
2023/12/22 08:42:59;;;;;;;16.40;2.77;;;22.60;62.30;;;;;;5044239;28;20209;-71
2023/12/22 08:45:30;;;;;;;10.80;2.63;;;22.60;62.10;;;;;;5035429;28;20211;-70
2023/12/22 08:47:58;;;;;;;12.47;2.83;;;22.70;62.10;;;;;;5043554;28;20216;-72
2023/12/22 08:50:25;;;;;;;9.80;2.17;;;22.50;62.00;;;;;;5036272;28;20191;-72
2023/12/22 08:52:52;;;;;;;9.23;1.90;;;22.50;62.00;;;;;;5043621;28;20187;-69
2023/12/22 08:55:20;;;;;;;7.30;1.90;;;22.30;61.80;;;;;;5046346;28;20200;-67
2023/12/22 08:57:47;;;;;;;8.63;2.10;;;22.20;61.80;;;;;;5047719;28;20184;-71
2023/12/22 09:00:15;;;;;;;11.37;2.63;;;22.10;62.50;;;;;;5044094;28;20319;-69
2023/12/22 09:02:42;;;;;;;11.00;2.80;;;22.20;62.70;;;;;;5035763;28;20199;-68
2023/12/22 09:05:09;;;;;;;14.03;3.17;;;22.20;62.70;;;;;;5043872;28;20191;-67
2023/12/22 09:07:37;;;;;;;10.37;2.33;;;22.10;63.20;;;;;;5043513;28;20173;-69
2023/12/22 09:10:04;;;;;;;11.93;2.50;;;22.00;63.50;;;;;;5042953;28;20188;-68
2023/12/22 09:12:32;;;;;;;12.90;2.57;;;21.90;63.70;;;;;;5040376;28;20631;-71
2023/12/22 09:14:59;;;;;;;12.17;2.30;;;21.90;64.10;;;;;;5042547;28;20226;-67
2023/12/22 09:17:28;;;;;;;11.37;2.43;;;21.80;64.80;;;;;;5049253;28;20188;-67
2023/12/22 09:19:55;;;;;;;10.27;2.30;;;21.80;65.30;;;;;;5047850;28;20243;-69
2023/12/22 09:22:23;;;;;;;14.10;2.60;;;21.70;65.70;;;;;;5041694;28;20176;-68
2023/12/22 09:24:50;;;;;;;15.83;2.60;;;21.60;66.10;;;;;;5039021;28;20189;-68
2023/12/22 09:27:17;;;;;;;12.30;3.07;;;21.60;66.20;;;;;;5042343;28;20643;-70
2023/12/22 09:29:45;;;;;;;10.53;2.70;;;21.70;66.50;;;;;;5040655;28;20544;-67
2023/12/22 09:32:12;;;;;;;8.57;2.30;;;21.60;66.60;;;;;;5043195;28;20260;-68
2023/12/22 09:34:40;;;;;;;10.47;2.20;;;21.60;67.00;;;;;;5039336;28;20281;-67
2023/12/22 09:37:07;;;;;;;17.23;2.40;;;21.60;67.10;;;;;;5040869;28;20168;-67
2023/12/22 09:39:35;;;;;;;10.43;3.20;;;21.60;67.60;;;;;;5038221;28;20169;-67
2023/12/22 09:42:02;;;;;;;11.07;2.57;;;21.60;67.80;;;;;;5057654;28;20306;-69
2023/12/22 09:44:34;;;;;;;12.53;2.40;;;21.60;68.00;;;;;;5059623;28;20191;-68
2023/12/22 09:47:04;;;;;;;17.77;2.87;;;21.60;68.20;;;;;;5055100;28;20650;-67
2023/12/22 09:49:33;;;;;;;8.80;2.57;;;21.50;68.50;;;;;;5053410;28;20537;-66
2023/12/22 09:52:02;;;;;;;13.70;3.03;;;21.50;68.90;;;;;;5053022;28;20191;-66
2023/12/22 09:54:32;;;;;;;9.03;2.50;;;21.50;68.80;;;;;;5054425;28;20211;-67
2023/12/22 09:57:03;;;;;;;12.53;2.30;;;21.30;68.60;;;;;;5050223;28;20187;-67
2023/12/22 09:59:33;;;;;;;7.93;2.33;;;21.30;68.70;;;;;;5033284;28;20176;-67
2023/12/22 10:02:02;;;;;;;14.50;2.80;;;21.40;68.00;;;;;;5053680;28;20310;-67
2023/12/22 10:04:30;;;;;;;13.00;2.67;;;21.40;68.30;;;;;;5050774;28;20223;-72
2023/12/22 10:07:01;;;;;;;16.47;2.87;;;21.40;68.90;;;;;;5052202;28;20187;-68
2023/12/22 10:09:28;;;;;;;15.43;2.40;;;21.50;69.40;;;;;;5043033;28;20204;-69
2023/12/22 10:11:57;;;;;;;11.07;2.50;;;21.40;69.90;;;;;;5053243;28;20180;-67
2023/12/22 10:14:26;;;;;;;12.23;2.10;;;21.30;70.30;;;;;;5053578;28;20216;-68
2023/12/22 10:16:54;;;;;;;15.10;2.80;;;21.30;70.60;;;;;;5054075;28;20242;-68
2023/12/22 10:19:21;;;;;;;15.53;2.23;;;21.30;70.80;;;;;;5058725;28;20898;-67
2023/12/22 10:21:50;;;;;;;12.73;2.93;;;21.30;71.10;;;;;;5054897;28;20180;-67
2023/12/22 10:24:43;;;;;;;12.10;2.53;;;21.30;71.50;;;;;;5057531;28;20188;-69
2023/12/22 10:27:11;;;;;;;11.10;2.63;;;21.40;71.40;;;;;;5036011;28;20209;-68
2023/12/22 10:29:39;;;;;;;12.60;2.33;;;21.50;71.30;;;;;;5055132;28;20516;-70
2023/12/22 10:32:08;;;;;;;13.30;2.40;;;21.40;71.60;;;;;;5062280;28;20192;-71
2023/12/22 10:34:36;;;;;;;9.30;2.00;;;21.30;71.50;;;;;;5065677;28;20223;-69
2023/12/22 10:37:04;;;;;;;10.03;2.30;;;21.30;71.50;;;;;;5054049;28;20349;-69
2023/12/22 10:39:33;;;;;;;12.73;2.57;;;21.30;71.30;;;;;;5052618;28;20609;-67
2023/12/22 10:42:01;;;;;;;17.57;2.80;;;21.30;71.50;;;;;;5058436;28;20592;-68
2023/12/22 10:44:29;;;;;;;13.30;2.93;;;21.30;71.80;;;;;;5053556;28;20200;-69
2023/12/22 10:46:57;;;;;;;9.00;2.37;;;21.30;72.10;;;;;;5055296;28;20179;-68
2023/12/22 10:49:26;;;;;;;13.90;3.07;;;21.30;72.10;;;;;;5052880;28;20229;-70
2023/12/22 10:51:53;;;;;;;18.63;3.13;;;21.30;72.20;;;;;;5056422;28;20180;-69
2023/12/22 10:54:21;;;;;;;17.53;2.93;;;21.20;72.20;;;;;;5056581;28;20567;-70
2023/12/22 10:56:49;;;;;;;21.77;2.93;;;21.30;72.30;;;;;;5055605;28;20234;-70
2023/12/22 10:59:26;;;;;;;11.50;2.33;;;21.10;72.10;;;;;;5050134;28;20195;-69
2023/12/22 11:01:57;;;;;;;12.13;2.27;;;21.20;72.10;;;;;;5057406;28;20180;-68
2023/12/22 11:04:30;;;;;;;11.97;2.87;;;21.10;72.10;;;;;;5063286;28;20187;-69
2023/12/22 11:06:59;;;;;;;13.00;2.60;;;21.10;71.90;;;;;;5052761;28;20168;-68
2023/12/22 11:09:31;;;;;;;15.73;2.80;;;21.00;72.30;;;;;;5052306;28;20188;-68
2023/12/22 11:12:00;;;;;;;9.40;2.47;;;21.00;72.50;;;;;;5063783;28;20180;-68
2023/12/22 11:14:29;;;;;;;13.87;2.67;;;21.00;72.40;;;;;;5069685;28;20208;-68
2023/12/22 11:16:58;;;;;;;12.33;2.63;;;21.10;72.30;;;;;;5066560;28;20164;-67
2023/12/22 11:19:27;;;;;;;15.97;2.57;;;21.00;72.20;;;;;;5052390;28;20184;-68
2023/12/22 11:21:57;;;;;;;13.93;2.37;;;21.10;72.30;;;;;;5066106;28;20179;-70
2023/12/22 11:24:26;;;;;;;17.63;2.90;;;21.10;72.50;;;;;;5070428;28;20187;-67
2023/12/22 11:26:59;;;;;;;13.27;2.43;;;21.00;72.70;;;;;;5049371;28;20202;-67
2023/12/22 11:29:28;;;;;;;16.27;2.87;;;20.90;72.60;;;;;;5050188;28;20568;-69
2023/12/22 11:31:58;;;;;;;14.23;2.93;;;20.90;72.40;;;;;;5052087;28;20638;-69
2023/12/22 11:34:29;;;;;;;21.73;2.93;;;20.90;72.50;;;;;;5053669;28;20277;-69
2023/12/22 11:36:59;;;;;;;6.97;2.23;;;20.90;72.70;;;;;;5052023;28;20259;-70
2023/12/22 11:39:26;;;;;;;11.63;2.30;;;20.90;72.60;;;;;;5052272;28;20202;-68
2023/12/22 11:41:55;;;;;;;11.90;2.53;;;20.90;72.80;;;;;;5057815;28;20222;-67
2023/12/22 11:44:23;;;;;;;12.87;3.10;;;20.90;72.90;;;;;;5072139;28;20607;-73
2023/12/22 11:47:03;;;;;;;17.10;3.03;;;20.90;73.30;;;;;;5053767;28;20519;-69
2023/12/22 11:49:37;;;;;;;12.30;2.67;;;20.90;73.30;;;;;;5052909;28;20224;-67
2023/12/22 11:52:15;;;;;;;11.33;2.60;;;20.80;73.70;;;;;;5064361;28;20188;-68
2023/12/22 11:54:51;;;;;;;12.73;2.23;;;20.80;73.90;;;;;;5065887;28;20211;-70
2023/12/22 11:57:40;;;;;;;16.53;2.30;;;20.80;74.10;;;;;;5043077;28;20180;-68
2023/12/22 12:00:34;;;;;;;13.37;2.67;;;20.80;74.10;;;;;;5052309;28;20183;-68
2023/12/22 12:03:07;;;;;;;10.57;2.00;;;20.80;74.00;;;;;;5046645;28;20184;-70
2023/12/22 12:05:34;;;;;;;11.10;2.30;;;20.80;73.60;;;;;;5051229;28;20569;-68
2023/12/22 12:08:08;;;;;;;8.53;2.20;;;20.80;73.80;;;;;;5053197;28;20184;-68
2023/12/22 12:10:37;;;;;;;10.00;2.20;;;20.80;73.90;;;;;;5038532;28;20262;-67
2023/12/22 12:13:08;;;;;;;13.27;2.67;;;20.90;73.70;;;;;;5050428;28;20567;-68
2023/12/22 12:15:36;;;;;;;9.87;2.23;;;20.90;73.90;;;;;;5051770;28;20200;-69
2023/12/22 12:18:05;;;;;;;11.57;2.33;;;20.90;74.00;;;;;;5062490;28;20179;-69
2023/12/22 12:20:34;;;;;;;9.57;2.20;;;20.90;74.00;;;;;;5053804;28;20184;-70
2023/12/22 12:23:05;;;;;;;11.30;2.07;;;20.90;74.10;;;;;;5072202;28;20661;-72
2023/12/22 12:25:35;;;;;;;13.90;2.53;;;20.90;73.90;;;;;;5053986;28;20250;-67
2023/12/22 12:28:06;;;;;;;7.03;1.90;;;20.90;73.80;;;;;;5054632;28;20271;-70
2023/12/22 12:30:35;;;;;;;11.40;2.33;;;20.80;73.80;;;;;;5054162;28;20174;-68
2023/12/22 12:33:10;;;;;;;14.00;2.60;;;20.80;73.70;;;;;;5065327;28;20174;-67
2023/12/22 12:35:39;;;;;;;9.27;1.80;;;20.80;73.80;;;;;;5051335;28;20195;-67
2023/12/22 12:38:07;;;;;;;15.30;2.70;;;20.80;73.80;;;;;;5050907;28;20195;-67
2023/12/22 12:40:36;;;;;;;10.33;2.07;;;20.80;73.90;;;;;;5047133;28;20666;-68
2023/12/22 12:43:04;;;;;;;8.73;2.23;;;20.90;74.10;;;;;;5065239;28;20179;-67
2023/12/22 12:45:31;;;;;;;17.00;2.60;;;20.80;74.30;;;;;;5053700;28;20646;-70
2023/12/22 12:48:00;;;;;;;9.10;2.13;;;20.90;74.40;;;;;;5071552;28;20182;-67